createdAt,value
2018-12-17T00:01:46.786Z,27.50
2018-12-17T00:04:16.114Z,29.00
2018-12-17T00:06:45.438Z,30.10
2018-12-17T00:09:14.713Z,28.13
2018-12-17T00:11:44.008Z,28.37
2018-12-17T00:14:13.285Z,28.30
2018-12-17T00:16:42.599Z,27.27
2018-12-17T00:19:11.953Z,28.63
2018-12-17T00:21:41.261Z,28.87
2018-12-17T00:24:10.690Z,27.63
2018-12-17T00:26:39.944Z,28.60
2018-12-17T00:29:09.219Z,29.43
2018-12-17T00:31:38.478Z,29.87
2018-12-17T00:34:07.800Z,29.30
2018-12-17T00:36:37.059Z,29.33
2018-12-17T00:39:07.638Z,30.33
2018-12-17T00:41:36.995Z,27.63
2018-12-17T00:44:06.435Z,27.67
2018-12-17T00:46:35.802Z,30.40
2018-12-17T00:49:05.053Z,30.07
2018-12-17T00:51:34.335Z,29.23
2018-12-17T00:54:03.695Z,29.83
2018-12-17T00:56:33.070Z,29.63
2018-12-17T00:59:02.317Z,30.40
2018-12-17T01:01:31.641Z,29.97
2018-12-17T01:04:00.999Z,29.67
2018-12-17T01:06:30.317Z,28.40
2018-12-17T01:08:59.597Z,29.10
2018-12-17T01:11:28.883Z,31.20
2018-12-17T01:13:58.158Z,29.70
2018-12-17T01:16:27.481Z,30.37
2018-12-17T01:18:56.725Z,29.60
2018-12-17T01:21:26.044Z,29.47
2018-12-17T01:23:55.325Z,30.97
2018-12-17T01:26:24.744Z,30.40
2018-12-17T01:28:54.028Z,29.27
2018-12-17T01:31:23.311Z,30.00
2018-12-17T01:33:52.579Z,32.07
2018-12-17T01:36:21.891Z,30.40
2018-12-17T01:38:51.201Z,30.20
2018-12-17T01:41:20.481Z,27.97
2018-12-17T01:43:49.755Z,29.20
2018-12-17T01:46:19.137Z,29.33
2018-12-17T01:48:48.459Z,29.03
2018-12-17T01:51:17.744Z,30.27
2018-12-17T01:53:47.065Z,28.73
2018-12-17T01:56:16.437Z,28.77
2018-12-17T01:58:45.776Z,27.17
2018-12-17T02:01:15.154Z,29.33
2018-12-17T02:03:44.425Z,28.10
2018-12-17T02:06:13.727Z,26.97
2018-12-17T02:08:42.987Z,27.77
2018-12-17T02:11:12.343Z,27.97
2018-12-17T02:13:41.642Z,27.13
2018-12-17T02:16:10.932Z,28.07
2018-12-17T02:18:40.219Z,27.10
2018-12-17T02:21:09.553Z,26.43
2018-12-17T02:23:38.779Z,28.10
2018-12-17T02:26:27.512Z,26.67
2018-12-17T02:28:56.798Z,24.30
2018-12-17T02:31:26.091Z,25.67
2018-12-17T02:33:55.369Z,26.67
2018-12-17T02:36:24.731Z,22.97
2018-12-17T02:38:54.103Z,24.43
2018-12-17T02:41:23.402Z,25.20
2018-12-17T02:43:52.674Z,26.17
2018-12-17T02:46:22.011Z,25.73
2018-12-17T02:48:51.333Z,24.37
2018-12-17T02:51:20.604Z,25.97
2018-12-17T02:53:49.935Z,24.93
2018-12-17T02:56:19.323Z,24.53
2018-12-17T02:58:48.640Z,24.10
2018-12-17T03:01:17.900Z,23.97
2018-12-17T03:03:47.200Z,24.37
2018-12-17T03:06:16.534Z,23.77
2018-12-17T03:08:45.859Z,22.63
2018-12-17T03:11:15.222Z,22.80
2018-12-17T03:13:44.545Z,22.67
2018-12-17T03:16:13.862Z,20.53
2018-12-17T03:18:43.172Z,21.40
2018-12-17T03:21:12.543Z,20.73
2018-12-17T03:23:41.847Z,21.03
2018-12-17T03:26:11.138Z,18.03
2018-12-17T03:28:40.384Z,19.10
2018-12-17T03:31:09.652Z,19.80
2018-12-17T03:33:38.902Z,18.70
2018-12-17T03:36:08.178Z,18.37
2018-12-17T03:38:37.538Z,17.67
2018-12-17T03:41:06.865Z,17.73
2018-12-17T03:43:36.132Z,17.37
2018-12-17T03:46:05.452Z,18.73
2018-12-17T03:48:34.705Z,17.17
2018-12-17T03:51:04.065Z,17.40
2018-12-17T03:53:33.446Z,15.97
2018-12-17T03:56:02.752Z,17.60
2018-12-17T03:58:32.043Z,16.33
2018-12-17T04:01:01.366Z,16.20
2018-12-17T04:03:30.744Z,16.97
2018-12-17T04:06:00.063Z,16.30
2018-12-17T04:08:29.338Z,15.63
2018-12-17T04:10:58.621Z,16.17
2018-12-17T04:13:27.939Z,15.33
2018-12-17T04:15:57.192Z,16.63
2018-12-17T04:18:26.512Z,17.10
2018-12-17T04:20:55.852Z,16.17
2018-12-17T04:23:25.147Z,16.03
2018-12-17T04:25:54.428Z,16.23
2018-12-17T04:28:23.712Z,16.67
2018-12-17T04:30:53.047Z,16.27
2018-12-17T04:33:22.390Z,16.50
2018-12-17T04:35:51.721Z,17.07
2018-12-17T04:38:20.981Z,15.67
2018-12-17T04:40:50.221Z,16.77
2018-12-17T04:43:19.528Z,16.90
2018-12-17T04:45:48.877Z,16.23
2018-12-17T04:48:18.181Z,16.57
2018-12-17T04:50:47.421Z,15.80
2018-12-17T04:53:16.668Z,16.83
2018-12-17T04:55:45.956Z,16.43
2018-12-17T04:58:15.244Z,16.23
2018-12-17T05:00:44.571Z,16.67
2018-12-17T05:03:13.899Z,16.50
2018-12-17T05:05:43.163Z,16.23
2018-12-17T05:08:12.458Z,15.80
2018-12-17T05:10:41.745Z,16.80
2018-12-17T05:13:11.090Z,16.40
2018-12-17T05:15:40.382Z,15.53
2018-12-17T05:18:09.685Z,16.87
2018-12-17T05:20:38.937Z,16.97
2018-12-17T05:23:08.205Z,18.23
2018-12-17T05:25:37.570Z,18.47
2018-12-17T05:28:07.002Z,18.30
2018-12-17T05:30:36.315Z,19.50
2018-12-17T05:33:05.646Z,19.97
2018-12-17T05:35:35.826Z,18.77
2018-12-17T05:38:05.255Z,20.30
2018-12-17T05:40:34.623Z,19.00
2018-12-17T05:43:03.909Z,18.30
2018-12-17T05:45:33.229Z,20.27
2018-12-17T05:48:02.509Z,19.57
2018-12-17T05:50:31.779Z,19.37
2018-12-17T05:53:01.029Z,20.03
2018-12-17T05:55:30.447Z,19.67
2018-12-17T05:57:59.741Z,20.20
2018-12-17T06:00:29.114Z,21.53
2018-12-17T06:02:58.398Z,19.97
2018-12-17T06:05:27.684Z,19.47
2018-12-17T06:07:59.925Z,19.07
2018-12-17T06:10:29.227Z,19.73
2018-12-17T06:12:58.505Z,20.50
2018-12-17T06:15:27.846Z,19.63
2018-12-17T06:17:57.195Z,19.17
2018-12-17T06:20:26.633Z,20.10
2018-12-17T06:22:55.902Z,21.20
2018-12-17T06:25:25.242Z,20.10
2018-12-17T06:27:54.565Z,20.97
2018-12-17T06:30:23.852Z,20.80
2018-12-17T06:32:53.227Z,19.17
2018-12-17T06:35:22.507Z,20.67
2018-12-17T06:37:51.837Z,20.13
2018-12-17T06:40:21.137Z,20.10
2018-12-17T06:42:50.539Z,21.20
2018-12-17T06:45:19.823Z,21.07
2018-12-17T06:47:49.155Z,20.00
2018-12-17T06:50:18.415Z,22.00
2018-12-17T06:52:47.753Z,21.20
2018-12-17T06:55:17.154Z,20.63
2018-12-17T06:57:46.421Z,21.43
2018-12-17T07:00:15.718Z,21.43
2018-12-17T07:02:44.979Z,19.80
2018-12-17T07:05:14.245Z,20.63
2018-12-17T07:07:43.579Z,20.83
2018-12-17T07:10:12.931Z,19.97
2018-12-17T07:12:42.265Z,21.03
2018-12-17T07:15:11.728Z,19.63
2018-12-17T07:17:41.078Z,18.90
2018-12-17T07:20:10.363Z,20.03
2018-12-17T07:22:39.636Z,20.10
2018-12-17T07:25:08.975Z,19.33
2018-12-17T07:27:38.373Z,14.23
2018-12-17T07:30:08.401Z,19.00
2018-12-17T07:32:38.066Z,24.00
2018-12-17T07:35:07.691Z,22.70
2018-12-17T07:37:36.873Z,20.10
2018-12-17T07:40:06.959Z,19.53
2018-12-17T07:42:36.479Z,19.13
2018-12-17T07:45:06.218Z,18.40
2018-12-17T07:47:35.496Z,19.43
2018-12-17T07:50:05.709Z,19.33
2018-12-17T07:52:35.355Z,19.20
2018-12-17T07:55:05.138Z,18.17
2018-12-17T07:57:34.438Z,17.43
2018-12-17T08:00:03.915Z,18.30
2018-12-17T08:02:33.219Z,18.07
2018-12-17T08:05:02.593Z,18.83
2018-12-17T08:07:31.863Z,18.40
2018-12-17T08:10:01.327Z,18.60
2018-12-17T08:12:30.684Z,16.97
2018-12-17T08:15:00.201Z,17.90
2018-12-17T08:17:29.588Z,17.90
2018-12-17T08:19:58.875Z,17.87
2018-12-17T08:22:28.329Z,17.63
2018-12-17T08:24:57.705Z,18.90
2018-12-17T08:27:27.459Z,17.80
2018-12-17T08:30:03.734Z,17.70
2018-12-17T08:32:26.055Z,18.10
2018-12-17T08:34:55.323Z,18.30
2018-12-17T08:37:24.635Z,17.40
2018-12-17T08:39:53.913Z,16.90
2018-12-17T08:42:23.513Z,17.27
2018-12-17T08:44:52.862Z,17.47
2018-12-17T08:47:22.257Z,17.23
2018-12-17T08:49:51.483Z,17.43
2018-12-17T08:52:20.779Z,17.97
2018-12-17T08:54:50.083Z,17.10
2018-12-17T08:57:19.387Z,16.83
2018-12-17T08:59:48.665Z,17.43
2018-12-17T09:02:17.983Z,17.33
2018-12-17T09:04:47.341Z,16.93
2018-12-17T09:07:16.751Z,16.60
2018-12-17T09:09:46.078Z,17.53
2018-12-17T09:12:15.469Z,17.80
2018-12-17T09:14:44.852Z,17.27
2018-12-17T09:17:14.155Z,16.80
2018-12-17T09:19:43.503Z,17.10
2018-12-17T09:22:12.851Z,16.73
2018-12-17T09:24:42.163Z,15.37
2018-12-17T09:27:11.422Z,15.50
2018-12-17T09:29:40.773Z,15.77
2018-12-17T09:32:10.112Z,15.63
2018-12-17T09:34:39.430Z,14.93
2018-12-17T09:37:08.759Z,15.83
2018-12-17T09:39:38.121Z,14.80
2018-12-17T09:42:07.383Z,14.70
2018-12-17T09:44:36.694Z,15.47
2018-12-17T09:47:05.986Z,15.80
2018-12-17T09:49:35.262Z,13.73
2018-12-17T09:52:04.516Z,14.40
2018-12-17T09:54:33.886Z,14.03
2018-12-17T09:57:03.237Z,14.87
2018-12-17T09:59:32.572Z,13.47
2018-12-17T10:02:01.858Z,13.07
2018-12-17T10:04:31.192Z,11.80
2018-12-17T10:07:00.562Z,12.53
2018-12-17T10:09:29.918Z,12.40
2018-12-17T10:11:59.263Z,12.00
2018-12-17T10:14:28.595Z,11.57
2018-12-17T10:16:58.147Z,11.20
2018-12-17T10:19:27.400Z,11.13
2018-12-17T10:21:56.745Z,11.77
2018-12-17T10:24:26.004Z,10.90
2018-12-17T10:26:55.302Z,10.40
2018-12-17T10:29:24.638Z,10.53
2018-12-17T10:31:53.970Z,10.53
2018-12-17T10:34:23.433Z,10.30
2018-12-17T10:36:52.734Z,9.80
2018-12-17T10:39:22.185Z,9.80
2018-12-17T10:41:51.487Z,10.47
2018-12-17T10:44:20.822Z,9.03
2018-12-17T10:46:50.141Z,9.80
2018-12-17T10:49:19.420Z,9.67
2018-12-17T10:51:48.735Z,10.17
2018-12-17T10:54:18.021Z,9.10
2018-12-17T10:56:47.347Z,9.00
2018-12-17T10:59:16.591Z,9.23
2018-12-17T11:02:07.655Z,8.63
2018-12-17T11:04:49.262Z,8.17
2018-12-17T11:07:18.533Z,8.07
2018-12-17T11:09:47.797Z,8.57
2018-12-17T11:12:17.120Z,8.07
2018-12-17T11:14:46.582Z,8.20
2018-12-17T11:17:15.828Z,8.70
2018-12-17T11:19:45.174Z,8.20
2018-12-17T11:22:14.454Z,7.43
2018-12-17T11:24:43.760Z,8.27
2018-12-17T11:27:13.130Z,7.97
2018-12-17T11:29:42.885Z,7.37
2018-12-17T11:32:12.129Z,8.33
2018-12-17T11:34:41.483Z,9.03
2018-12-17T11:37:10.839Z,8.37
2018-12-17T11:39:40.182Z,8.87
2018-12-17T11:42:09.433Z,8.07
2018-12-17T11:44:38.775Z,8.07
2018-12-17T11:47:08.065Z,8.13
2018-12-17T11:49:37.467Z,9.07
2018-12-17T11:52:06.869Z,8.43
2018-12-17T11:54:36.193Z,8.10
2018-12-17T11:58:14.651Z,8.00
2018-12-17T12:01:04.158Z,8.70
2018-12-17T12:03:35.469Z,8.43
2018-12-17T12:06:04.773Z,8.40
2018-12-17T12:08:34.145Z,9.00
2018-12-17T12:11:03.510Z,8.33
2018-12-17T12:13:32.800Z,8.13
2018-12-17T12:16:02.173Z,8.30
2018-12-17T12:18:31.527Z,7.43
2018-12-17T12:21:00.854Z,7.80
2018-12-17T12:23:30.983Z,8.33
2018-12-17T12:26:00.367Z,7.37
2018-12-17T12:28:29.631Z,7.37
2018-12-17T12:31:00.565Z,6.80
2018-12-17T12:33:28.190Z,6.93
2018-12-17T12:35:57.485Z,7.17
2018-12-17T12:38:26.830Z,7.20
2018-12-17T12:40:56.161Z,8.23
2018-12-17T12:43:25.457Z,7.27
2018-12-17T12:45:54.734Z,7.67
2018-12-17T12:48:24.037Z,6.77
2018-12-17T12:50:53.395Z,6.50
2018-12-17T12:53:25.621Z,6.67
2018-12-17T12:55:54.935Z,7.30
2018-12-17T12:58:24.285Z,6.80
2018-12-17T13:00:53.593Z,7.17
2018-12-17T13:03:22.883Z,6.73
2018-12-17T13:05:52.187Z,7.30
2018-12-17T13:08:21.469Z,7.73
2018-12-17T13:10:50.874Z,7.23
2018-12-17T13:13:20.187Z,7.10
2018-12-17T13:15:49.703Z,7.37
2018-12-17T13:18:19.011Z,7.80
2018-12-17T13:20:48.305Z,7.63
2018-12-17T13:23:17.649Z,7.07
2018-12-17T13:25:49.975Z,7.03
2018-12-17T13:28:19.393Z,7.57
2018-12-17T13:30:48.664Z,8.40
2018-12-17T13:33:17.997Z,7.80
2018-12-17T13:35:47.539Z,7.37
2018-12-17T13:38:16.875Z,7.77
2018-12-17T13:40:46.184Z,7.97
2018-12-17T13:43:15.478Z,8.37
2018-12-17T13:45:44.833Z,8.03
2018-12-17T13:48:14.204Z,8.57
2018-12-17T13:50:43.458Z,8.43
2018-12-17T13:53:30.403Z,8.53
2018-12-17T13:55:59.795Z,8.17
2018-12-17T13:58:29.281Z,8.40
2018-12-17T14:00:58.548Z,8.17
2018-12-17T14:03:28.005Z,8.70
2018-12-17T14:05:57.296Z,8.40
2018-12-17T14:08:26.574Z,8.70
2018-12-17T14:10:55.849Z,10.07
2018-12-17T14:13:25.179Z,9.73
2018-12-17T14:16:13.610Z,9.20
2018-12-17T14:19:01.650Z,10.73
2018-12-17T14:21:48.870Z,10.93
2018-12-17T14:24:18.168Z,10.80
2018-12-17T14:26:47.541Z,10.53
2018-12-17T14:29:16.849Z,10.00
2018-12-17T14:31:46.119Z,11.83
2018-12-17T14:34:15.400Z,11.97
2018-12-17T14:36:44.672Z,11.63
2018-12-17T14:39:13.946Z,11.67
2018-12-17T14:41:43.217Z,11.87
2018-12-17T14:44:30.489Z,11.87
2018-12-17T14:46:59.798Z,11.00
2018-12-17T14:49:29.113Z,11.23
2018-12-17T14:51:58.380Z,11.57
2018-12-17T14:54:27.691Z,11.27
2018-12-17T14:56:57.225Z,11.30
2018-12-17T14:59:26.522Z,10.70
2018-12-17T15:01:55.855Z,10.17
2018-12-17T15:04:25.235Z,10.33
2018-12-17T15:06:54.555Z,10.40
2018-12-17T15:09:23.844Z,10.43
2018-12-17T15:11:53.170Z,10.03
2018-12-17T15:14:22.456Z,9.83
2018-12-17T15:16:51.898Z,10.37
2018-12-17T15:19:21.237Z,10.27
2018-12-17T15:21:50.516Z,10.53
2018-12-17T15:24:19.787Z,11.00
2018-12-17T15:26:49.132Z,10.53
2018-12-17T15:32:50.161Z,10.63
2018-12-17T15:35:31.623Z,9.00
2018-12-17T15:38:14.829Z,9.13
2018-12-17T15:40:57.710Z,9.70
2018-12-17T15:43:50.435Z,9.80
2018-12-17T15:46:26.703Z,9.03
2018-12-17T15:48:57.240Z,9.00
2018-12-17T15:51:26.616Z,9.50
2018-12-17T15:53:56.536Z,8.63
2018-12-17T15:56:25.918Z,9.13
2018-12-17T15:59:35.405Z,8.63
2018-12-17T16:02:04.916Z,7.90
2018-12-17T16:04:52.320Z,8.60
2018-12-17T16:07:51.715Z,8.13
2018-12-17T16:10:43.616Z,7.90
2018-12-17T16:13:14.806Z,8.37
2018-12-17T16:15:56.599Z,7.60
2018-12-17T16:18:34.395Z,7.83
2018-12-17T16:21:27.565Z,8.23
2018-12-17T16:24:28.314Z,7.83
2018-12-17T16:27:27.816Z,7.33
2018-12-17T16:30:13.760Z,7.47
2018-12-17T16:33:03.198Z,7.67
2018-12-17T16:35:39.446Z,7.37
2018-12-17T16:38:09.357Z,7.23
2018-12-17T16:40:38.854Z,7.50
2018-12-17T16:43:08.218Z,8.33
2018-12-17T16:45:39.800Z,7.97
2018-12-17T16:48:32.880Z,8.10
2018-12-17T16:51:17.907Z,7.93
2018-12-17T16:53:56.327Z,8.03
2018-12-17T16:56:34.282Z,7.93
2018-12-17T16:59:23.498Z,8.50
2018-12-17T17:02:19.484Z,8.57
2018-12-17T17:05:10.966Z,8.17
2018-12-17T17:08:17.130Z,8.20
2018-12-17T17:11:15.768Z,8.93
2018-12-17T17:14:05.725Z,8.47
2018-12-17T17:17:05.629Z,8.70
2018-12-17T17:20:30.118Z,9.00
2018-12-17T17:23:05.872Z,9.47
2018-12-17T17:29:06.647Z,9.37
2018-12-17T17:32:11.544Z,10.30
2018-12-17T17:34:13.886Z,10.87
2018-12-17T17:36:43.215Z,11.30
2018-12-17T17:39:12.559Z,11.20
2018-12-17T17:41:41.869Z,10.33
2018-12-17T17:44:11.403Z,11.60
2018-12-17T17:46:40.735Z,11.20
2018-12-17T17:49:10.105Z,12.57
2018-12-17T17:51:39.545Z,11.70
2018-12-17T17:54:08.895Z,11.57
2018-12-17T17:56:38.247Z,11.23
2018-12-17T17:59:07.556Z,11.37
2018-12-17T18:01:37.091Z,11.93
2018-12-17T18:04:06.545Z,11.93
2018-12-17T18:06:35.977Z,12.00
2018-12-17T18:09:08.749Z,11.40
2018-12-17T18:11:38.099Z,11.40
2018-12-17T18:14:07.432Z,12.10
2018-12-17T18:16:36.737Z,12.43
2018-12-17T18:19:07.610Z,12.93
2018-12-17T18:21:37.046Z,12.53
2018-12-17T18:24:06.353Z,13.30
2018-12-17T18:26:35.910Z,12.77
2018-12-17T18:29:05.246Z,12.77
2018-12-17T18:31:34.627Z,12.63
2018-12-17T18:34:03.979Z,14.50
2018-12-17T18:36:33.313Z,14.10
2018-12-17T18:39:02.820Z,14.27
2018-12-17T18:41:32.200Z,14.83
2018-12-17T18:44:01.531Z,15.07
2018-12-17T18:46:30.929Z,13.77
2018-12-17T18:49:00.451Z,15.40
2018-12-17T18:51:29.858Z,15.90
2018-12-17T18:53:59.185Z,16.03
2018-12-17T18:56:28.515Z,15.13
2018-12-17T18:58:57.899Z,15.93
2018-12-17T19:01:27.229Z,16.23
2018-12-17T19:03:56.519Z,16.63
2018-12-17T19:06:25.925Z,17.23
2018-12-17T19:08:55.205Z,18.70
2018-12-17T19:11:24.526Z,20.40
2018-12-17T19:13:53.954Z,20.07
2018-12-17T19:16:23.340Z,20.93
2018-12-17T19:18:52.719Z,22.20
2018-12-17T19:21:22.040Z,21.40
2018-12-17T19:23:51.462Z,20.80
2018-12-17T19:26:20.839Z,21.57
2018-12-17T19:28:50.219Z,22.37
2018-12-17T19:31:19.646Z,21.53
2018-12-17T19:33:49.015Z,20.57
2018-12-17T19:36:18.639Z,19.30
2018-12-17T19:38:47.997Z,21.07
2018-12-17T19:41:17.292Z,19.87
2018-12-17T19:43:46.598Z,19.23
2018-12-17T19:46:16.074Z,20.27
2018-12-17T19:48:45.383Z,19.07
2018-12-17T19:51:14.783Z,19.23
2018-12-17T19:53:44.206Z,19.30
2018-12-17T19:56:13.593Z,20.10
2018-12-17T19:58:42.889Z,18.53
2018-12-17T20:01:12.321Z,19.23
2018-12-17T20:03:41.657Z,20.13
2018-12-17T20:06:11.102Z,18.20
2018-12-17T20:08:40.439Z,20.03
2018-12-17T20:11:09.792Z,20.37
2018-12-17T20:13:39.132Z,19.67
2018-12-17T20:16:08.457Z,21.10
2018-12-17T20:18:37.832Z,20.40
2018-12-17T20:21:07.173Z,21.50
2018-12-17T20:23:36.523Z,20.57
2018-12-17T20:26:05.880Z,21.00
2018-12-17T20:28:35.204Z,21.87
2018-12-17T20:31:04.498Z,22.07
2018-12-17T20:33:33.851Z,22.00
2018-12-17T20:36:03.217Z,21.60
2018-12-17T20:38:32.665Z,22.67
2018-12-17T20:41:02.034Z,21.93
2018-12-17T20:43:31.383Z,22.17
2018-12-17T20:46:00.750Z,21.00
2018-12-17T20:48:30.105Z,21.53
2018-12-17T20:50:59.419Z,21.73
2018-12-17T20:53:28.785Z,21.63
2018-12-17T20:55:58.176Z,22.83
2018-12-17T20:58:27.521Z,22.93
2018-12-17T21:00:56.826Z,22.67
2018-12-17T21:03:26.189Z,22.60
2018-12-17T21:05:55.463Z,22.57
2018-12-17T21:08:24.784Z,22.60
2018-12-17T21:10:54.349Z,22.50
2018-12-17T21:13:23.681Z,21.63
2018-12-17T21:15:53.047Z,22.03
2018-12-17T21:18:22.367Z,21.90
2018-12-17T21:20:51.701Z,22.20
2018-12-17T21:23:21.033Z,21.47
2018-12-17T21:25:50.365Z,23.23
2018-12-17T21:28:19.649Z,23.00
2018-12-17T21:30:48.938Z,23.13
2018-12-17T21:33:18.264Z,22.33
2018-12-17T21:35:47.584Z,22.67
2018-12-17T21:38:16.888Z,22.60
2018-12-17T21:40:46.221Z,22.83
2018-12-17T21:43:15.572Z,23.53
2018-12-17T21:45:45.015Z,23.50
2018-12-17T21:48:14.345Z,23.47
2018-12-17T21:50:43.688Z,25.57
2018-12-17T21:53:12.956Z,24.33
2018-12-17T21:55:42.287Z,25.37
2018-12-17T21:58:11.696Z,25.40
2018-12-17T22:00:41.121Z,24.70
2018-12-17T22:03:13.294Z,26.00
2018-12-17T22:05:39.728Z,25.10
2018-12-17T22:08:09.235Z,26.13
2018-12-17T22:10:38.544Z,25.27
2018-12-17T22:13:07.894Z,25.97
2018-12-17T22:15:37.252Z,25.73
2018-12-17T22:18:06.659Z,26.27
2018-12-17T22:20:36.026Z,25.00
2018-12-17T22:23:05.385Z,26.80
2018-12-17T22:25:34.742Z,25.73
2018-12-17T22:28:04.077Z,26.77
2018-12-17T22:30:33.436Z,27.57
2018-12-17T22:33:02.719Z,27.80
2018-12-17T22:35:32.040Z,27.43
2018-12-17T22:38:01.426Z,27.10
2018-12-17T22:40:31.006Z,28.17
2018-12-17T22:43:00.323Z,27.93
2018-12-17T22:45:29.677Z,28.93
2018-12-17T22:47:58.991Z,29.13
2018-12-17T22:50:28.365Z,27.20
2018-12-17T22:52:57.664Z,28.27
2018-12-17T22:55:27.079Z,27.27
2018-12-17T22:57:56.418Z,27.53
2018-12-17T23:00:25.742Z,26.73
2018-12-17T23:02:55.067Z,25.77
2018-12-17T23:05:24.370Z,27.80
2018-12-17T23:07:53.770Z,27.33
2018-12-17T23:11:02.455Z,29.20
2018-12-17T23:14:05.293Z,29.07
2018-12-17T23:17:11.162Z,32.00
2018-12-17T23:19:42.278Z,32.83
2018-12-17T23:22:11.799Z,31.57
2018-12-17T23:24:41.080Z,31.60
2018-12-17T23:27:10.364Z,32.00
2018-12-17T23:29:39.618Z,31.50
2018-12-17T23:32:08.969Z,31.53
2018-12-17T23:34:38.254Z,30.13
2018-12-17T23:37:07.568Z,33.17
2018-12-17T23:39:36.850Z,31.90
2018-12-17T23:42:06.170Z,32.97
2018-12-17T23:44:38.705Z,33.47
2018-12-17T23:47:08.008Z,33.43
2018-12-17T23:49:37.372Z,34.60
2018-12-17T23:52:06.635Z,33.43
2018-12-17T23:54:35.938Z,35.10
2018-12-17T23:57:05.316Z,33.30
2018-12-17T23:59:34.793Z,32.00
